Time;durP1;ratioP1;P1;durP2;ratioP2;P2;SDS_P1;SDS_P2;PMS_P1;PMS_P2;Temp;Humidity;BMP_temperature;BMP_pressure;BME280_temperature;BME280_humidity;BME280_pressure;Samples;Min_cycle;Max_cycle;Signal;HPM_P1;HPM_P2
2023/06/29 00:02:24;;;;;;;11.75;4.97;;;;;;;16.35;76.61;101343.13;4978327;28;20038;-88
2023/06/29 00:04:57;;;;;;;8.13;5.65;;;;;;;16.34;76.25;101336.22;4979196;28;20030;-88
2023/06/29 00:07:25;;;;;;;8.45;6.05;;;;;;;16.35;75.91;101348.34;4994994;28;20038;-88
2023/06/29 00:09:54;;;;;;;11.55;5.82;;;;;;;16.32;76.20;101349.38;4994864;28;20049;-89
2023/06/29 00:12:19;;;;;;;6.53;5.40;;;;;;;16.41;76.10;101347.13;4978970;28;20041;-88
2023/06/29 00:14:45;;;;;;;8.73;5.55;;;;;;;16.32;76.42;101349.38;4994139;28;20030;-88
2023/06/29 00:17:14;;;;;;;7.88;5.00;;;;;;;16.34;76.58;101351.91;4994622;28;20037;-87
2023/06/29 00:19:40;;;;;;;6.78;4.93;;;;;;;16.28;76.54;101350.50;4994889;28;20034;-88
2023/06/29 00:22:08;;;;;;;7.72;4.78;;;;;;;16.24;76.74;101351.63;5010302;28;20080;-88
2023/06/29 00:24:42;;;;;;;6.93;5.57;;;;;;;16.11;77.08;101331.56;4978869;28;20470;-87
2023/06/29 00:27:08;;;;;;;7.40;5.63;;;;;;;16.05;77.09;101335.41;4979951;28;20037;-88
2023/06/29 00:29:33;;;;;;;8.15;5.55;;;;;;;15.99;77.52;101327.94;4977962;28;20033;-88
2023/06/29 00:31:59;;;;;;;7.13;5.28;;;;;;;15.98;77.29;101318.44;4977800;28;20034;-89
2023/06/29 00:34:24;;;;;;;7.22;4.88;;;;;;;16.06;77.69;101343.13;4977584;28;20030;-88
2023/06/29 00:36:50;;;;;;;7.93;5.25;;;;;;;16.02;77.61;101323.34;5010339;28;20105;-88
2023/06/29 00:39:15;;;;;;;6.38;4.85;;;;;;;16.05;77.73;101340.63;4994022;28;20025;-87
2023/06/29 00:41:40;;;;;;;8.18;5.57;;;;;;;16.07;77.52;101336.13;4993632;28;20026;-87
2023/06/29 00:44:08;;;;;;;7.82;5.47;;;;;;;16.02;77.93;101331.19;4993736;28;20026;-89
2023/06/29 00:46:33;;;;;;;7.38;5.20;;;;;;;15.98;77.82;101321.88;4993608;28;20037;-88
2023/06/29 00:48:59;;;;;;;5.53;4.32;;;;;;;16.02;77.40;101319.91;4977236;28;20026;-87
2023/06/29 00:51:24;;;;;;;8.00;5.60;;;;;;;15.99;77.50;101318.34;4993812;28;20026;-88
2023/06/29 00:53:49;;;;;;;8.18;5.25;;;;;;;16.04;77.36;101329.34;4994047;28;20037;-88
2023/06/29 00:56:15;;;;;;;7.97;5.35;;;;;;;16.04;77.28;101328.50;4994036;28;20041;-89
2023/06/29 00:58:40;;;;;;;6.32;4.60;;;;;;;15.99;77.50;101323.56;4977475;28;20509;-87
2023/06/29 01:01:06;;;;;;;6.47;4.75;;;;;;;16.09;76.97;101328.22;4993721;28;20030;-88
2023/06/29 01:03:31;;;;;;;6.35;4.63;;;;;;;16.04;76.89;101323.28;4977110;28;20428;-87
2023/06/29 01:05:59;;;;;;;6.90;5.05;;;;;;;16.10;77.00;101322.06;4993193;28;20145;-87
2023/06/29 01:08:29;;;;;;;7.15;5.38;;;;;;;16.16;76.85;101332.13;4993575;28;20050;-88
2023/06/29 01:10:55;;;;;;;7.80;5.03;;;;;;;15.96;77.29;101305.47;5009911;28;20034;-87
2023/06/29 01:13:20;;;;;;;7.30;5.28;;;;;;;16.13;77.12;101327.94;4977194;28;20041;-88
2023/06/29 01:15:46;;;;;;;7.70;5.57;;;;;;;15.85;77.38;101280.97;4993260;28;20029;-87
2023/06/29 01:18:11;;;;;;;9.52;5.40;;;;;;;16.13;76.82;101325.34;4992628;28;20547;-89
2023/06/29 01:20:37;;;;;;;7.70;5.57;;;;;;;16.13;77.06;101322.72;4993828;28;20053;-87
2023/06/29 01:23:07;;;;;;;8.20;5.97;;;;;;;16.20;76.49;101320.56;4977229;28;20442;-87
2023/06/29 01:25:33;;;;;;;8.07;6.03;;;;;;;16.24;76.81;101330.75;4993209;28;20080;-88
2023/06/29 01:27:58;;;;;;;9.23;6.25;;;;;;;16.14;76.50;101321.78;4993407;28;20484;-86
2023/06/29 01:30:24;;;;;;;8.20;6.30;;;;;;;15.98;76.56;101308.00;4993449;28;20450;-88
2023/06/29 01:32:49;;;;;;;7.18;5.05;;;;;;;15.95;76.94;101310.78;4976849;28;20488;-87
2023/06/29 01:35:15;;;;;;;8.40;5.85;;;;;;;15.75;77.68;101271.09;4993193;28;20108;-88
2023/06/29 01:37:45;;;;;;;8.07;4.65;;;;;;;15.96;77.53;101304.63;4993235;28;20032;-88
2023/06/29 01:40:10;;;;;;;6.45;4.85;;;;;;;16.02;76.57;101307.69;4977478;28;20121;-86
2023/06/29 01:42:36;;;;;;;7.40;5.38;;;;;;;15.90;77.20;101297.16;4977131;28;20018;-87
2023/06/29 01:45:03;;;;;;;7.07;5.20;;;;;;;15.85;77.66;101301.84;4993237;28;20030;-87
2023/06/29 01:47:28;;;;;;;11.98;5.70;;;;;;;15.69;77.40;101281.03;5009223;28;20037;-87
2023/06/29 01:49:54;;;;;;;5.97;4.47;;;;;;;15.69;78.25;101297.53;4993210;28;20483;-87
2023/06/29 01:52:19;;;;;;;6.93;4.85;;;;;;;15.62;78.46;101306.63;4992923;28;20129;-88
2023/06/29 01:54:45;;;;;;;8.18;4.82;;;;;;;15.55;78.79;101292.28;4993124;28;20025;-87
2023/06/29 01:57:10;;;;;;;8.38;5.25;;;;;;;15.59;78.57;101301.59;5009449;28;20026;-89
2023/06/29 01:59:35;;;;;;;7.20;5.45;;;;;;;15.52;78.86;101289.00;5009496;28;20506;-88
2023/06/29 02:02:01;;;;;;;6.03;4.70;;;;;;;15.48;78.51;101286.56;4992568;28;20030;-88
2023/06/29 02:04:26;;;;;;;7.60;5.05;;;;;;;15.59;78.51;101296.38;4976747;28;20033;-87
2023/06/29 02:06:52;;;;;;;13.18;5.65;;;;;;;15.63;77.94;101297.03;5009423;28;20037;-87
2023/06/29 02:09:17;;;;;;;7.43;4.82;;;;;;;15.63;77.72;101299.66;4992813;28;20050;-87
2023/06/29 02:11:43;;;;;;;8.63;5.38;;;;;;;15.58;77.83;101292.09;4992907;28;20487;-87
2023/06/29 02:14:08;;;;;;;6.07;4.20;;;;;;;15.56;77.84;101296.56;4992930;28;20029;-88
2023/06/29 02:16:34;;;;;;;6.00;4.43;;;;;;;15.50;77.84;101289.09;5008924;28;20030;-87
2023/06/29 02:19:00;;;;;;;8.15;5.20;;;;;;;15.49;78.28;101293.47;4976626;28;20026;-86
2023/06/29 02:21:25;;;;;;;10.68;5.13;;;;;;;15.40;78.09;101274.91;4992971;28;20412;-87
2023/06/29 02:23:51;;;;;;;6.88;4.90;;;;;;;15.47;77.88;101291.88;5010295;28;20384;-87
2023/06/29 02:26:16;;;;;;;5.88;4.47;;;;;;;15.45;78.58;101270.28;4992632;28;20084;-87
2023/06/29 02:28:42;;;;;;;7.32;4.85;;;;;;;15.54;77.76;101289.75;4993267;28;20026;-87
2023/06/29 02:31:07;;;;;;;7.55;5.35;;;;;;;15.51;78.39;101280.31;4979814;28;20022;-86
2023/06/29 02:33:33;;;;;;;5.65;4.22;;;;;;;15.58;78.11;101286.03;5013811;28;20450;-88
2023/06/29 02:35:58;;;;;;;6.60;4.13;;;;;;;15.50;77.82;101286.47;4996116;28;20034;-89
2023/06/29 02:38:23;;;;;;;5.38;4.03;;;;;;;15.57;77.83;101300.00;4979914;28;20443;-88
2023/06/29 02:40:49;;;;;;;11.23;5.22;;;;;;;15.68;77.31;101302.84;4996235;28;20034;-87
2023/06/29 02:43:15;;;;;;;5.68;3.95;;;;;;;15.64;76.98;101304.81;4996414;28;20084;-87
2023/06/29 02:45:40;;;;;;;6.20;4.53;;;;;;;15.63;77.34;101302.25;5012090;28;20420;-88
2023/06/29 02:48:06;;;;;;;9.70;4.45;;;;;;;15.63;77.75;101310.09;4996300;28;20506;-85
2023/06/29 02:50:31;;;;;;;6.53;4.20;;;;;;;15.57;77.42;101285.19;4995766;28;20030;-86
2023/06/29 02:52:57;;;;;;;6.35;4.45;;;;;;;15.51;78.02;101298.59;5011988;28;20819;-86
2023/06/29 02:55:23;;;;;;;7.00;4.30;;;;;;;15.39;78.19;101286.28;4995987;28;20030;-87
2023/06/29 02:57:48;;;;;;;4.40;3.20;;;;;;;15.40;78.46;101299.22;4995956;28;20018;-86
2023/06/29 03:00:14;;;;;;;6.35;3.95;;;;;;;15.30;78.15;101290.25;4995376;28;20384;-86
2023/06/29 03:02:40;;;;;;;6.35;4.03;;;;;;;15.39;78.72;101314.94;4995895;28;20037;-86
2023/06/29 03:05:05;;;;;;;4.80;3.92;;;;;;;15.28;78.33;101292.13;4995723;28;20052;-86
2023/06/29 03:07:32;;;;;;;5.25;3.63;;;;;;;15.36;78.61;101315.13;4995364;28;20042;-85
2023/06/29 03:09:57;;;;;;;6.65;4.47;;;;;;;15.20;78.40;101279.50;4995498;28;20053;-86
2023/06/29 03:12:23;;;;;;;6.22;4.13;;;;;;;15.29;78.56;101308.59;5011941;28;20487;-85
2023/06/29 03:14:48;;;;;;;9.60;4.20;;;;;;;15.37;77.88;101311.59;4995669;28;20065;-86
2023/06/29 03:17:14;;;;;;;9.13;3.95;;;;;;;15.24;78.30;101289.75;5011937;28;20561;-86
2023/06/29 03:19:40;;;;;;;9.15;4.30;;;;;;;15.30;78.42;101305.06;4995699;28;20030;-85
2023/06/29 03:22:05;;;;;;;4.45;3.45;;;;;;;15.34;78.00;101311.75;4995638;28;20025;-86
2023/06/29 03:24:31;;;;;;;4.38;3.55;;;;;;;15.34;77.94;101317.84;5011327;28;20435;-86
2023/06/29 03:26:57;;;;;;;4.85;3.53;;;;;;;15.39;77.52;101323.63;4995416;28;20037;-86
2023/06/29 03:29:22;;;;;;;6.70;3.58;;;;;;;15.44;77.38;101323.38;4978796;28;20021;-86
2023/06/29 03:31:48;;;;;;;7.63;4.20;;;;;;;15.43;77.63;101321.66;5011590;28;20025;-85
2023/06/29 03:34:13;;;;;;;5.22;3.85;;;;;;;15.48;77.55;101324.84;5011531;28;20026;-86
2023/06/29 03:36:39;;;;;;;6.53;4.40;;;;;;;15.42;77.49;101309.56;4978943;28;20026;-85
2023/06/29 03:39:05;;;;;;;5.35;3.78;;;;;;;15.53;77.08;101322.78;4978950;28;20049;-86
2023/06/29 03:41:30;;;;;;;6.25;4.28;;;;;;;15.53;76.68;101317.59;5011160;28;20034;-84
2023/06/29 03:43:56;;;;;;;5.88;4.03;;;;;;;15.49;77.03;101310.88;4976748;28;20064;-86
2023/06/29 03:46:22;;;;;;;8.10;4.05;;;;;;;15.57;76.47;101313.88;4965231;28;20054;-85
2023/06/29 03:48:47;;;;;;;18.85;4.05;;;;;;;15.62;76.22;101322.28;4975097;28;20102;-85
2023/06/29 03:51:13;;;;;;;4.80;3.72;;;;;;;15.75;76.31;101333.69;4959248;28;20041;-85
2023/06/29 03:53:39;;;;;;;5.97;3.60;;;;;;;15.66;76.17;101321.19;4958781;28;20038;-85
2023/06/29 03:56:04;;;;;;;5.45;3.60;;;;;;;15.80;76.13;101346.44;4974698;28;20027;-85
2023/06/29 03:58:30;;;;;;;3.95;3.42;;;;;;;15.72;75.82;101328.63;4958595;28;20034;-86
2023/06/29 04:00:55;;;;;;;7.35;3.55;;;;;;;15.85;75.96;101334.00;4958931;28;20484;-85
2023/06/29 04:03:20;;;;;;;11.63;3.95;;;;;;;15.94;75.27;101341.28;4992406;28;20465;-85
2023/06/29 04:05:46;;;;;;;8.52;4.28;;;;;;;16.03;75.60;101347.72;4974909;28;20038;-86
2023/06/29 04:08:12;;;;;;;5.30;3.55;;;;;;;16.09;74.55;101334.28;4958484;28;20089;-86
2023/06/29 04:10:37;;;;;;;5.28;3.92;;;;;;;16.20;75.28;101349.28;4974610;28;20038;-88
2023/06/29 04:13:03;;;;;;;6.25;3.95;;;;;;;16.15;75.29;101330.47;4956683;28;20030;-87
2023/06/29 04:15:30;;;;;;;5.65;4.13;;;;;;;16.17;74.96;101329.44;4990429;28;20035;-88
2023/06/29 04:17:55;;;;;;;5.53;3.88;;;;;;;16.30;74.82;101330.34;4973103;28;20034;-89
2023/06/29 04:20:21;;;;;;;5.28;4.13;;;;;;;16.42;74.41;101348.78;4974621;28;20041;-88
2023/06/29 04:22:46;;;;;;;9.50;4.28;;;;;;;16.48;74.88;101340.59;4985046;28;20061;-91
2023/06/29 04:25:11;;;;;;;7.45;4.95;;;;;;;16.61;74.27;101349.31;5014017;28;20060;-90
2023/06/29 04:27:37;;;;;;;5.63;4.28;;;;;;;16.72;73.93;101351.31;4994191;28;20034;-90
2023/06/29 04:30:03;;;;;;;9.48;4.38;;;;;;;16.84;73.30;101340.94;4970020;28;20038;-91
2023/06/29 04:32:29;;;;;;;10.82;5.13;;;;;;;16.86;73.31;101351.28;4961269;28;20120;-93
2023/06/29 04:34:55;;;;;;;6.13;3.85;;;;;;;16.96;72.55;101354.13;4963551;28;20120;-88
2023/06/29 04:37:20;;;;;;;6.25;3.92;;;;;;;17.00;72.42;101338.16;4994943;28;20033;-90
2023/06/29 04:39:45;;;;;;;6.57;4.45;;;;;;;17.07;71.86;101352.50;4995803;28;20041;-92
2023/06/29 04:42:13;;;;;;;7.95;4.43;;;;;;;17.13;72.33;101356.50;4979177;28;20554;-92
2023/06/29 04:44:41;;;;;;;5.65;4.22;;;;;;;17.18;70.80;101354.44;4980133;28;20030;-91
2023/06/29 04:47:07;;;;;;;5.93;4.03;;;;;;;17.25;70.47;101352.25;5002113;28;20053;-91
2023/06/29 04:49:36;;;;;;;11.55;3.85;;;;;;;17.22;71.29;101350.69;4974217;28;20031;-92
2023/06/29 04:52:03;;;;;;;9.05;5.13;;;;;;;17.33;70.87;101355.22;4969955;28;20026;-91
2023/06/29 04:54:29;;;;;;;9.25;4.35;;;;;;;17.33;69.82;101342.16;4978357;28;20030;-92
2023/06/29 04:56:59;;;;;;;5.40;3.85;;;;;;;17.43;69.58;101359.75;4977679;28;20037;-92
2023/06/29 04:59:25;;;;;;;5.10;3.53;;;;;;;17.36;69.69;101332.31;4991026;28;20030;-90
2023/06/29 05:01:51;;;;;;;6.80;4.53;;;;;;;17.49;69.81;101354.09;4974033;28;20066;-92
2023/06/29 05:04:16;;;;;;;4.60;3.42;;;;;;;17.60;69.36;101363.00;4981126;28;20080;-90
2023/06/29 05:06:42;;;;;;;4.82;3.22;;;;;;;17.71;69.47;101363.19;4977286;28;20034;-93
2023/06/29 05:09:07;;;;;;;5.78;3.75;;;;;;;17.78;67.93;101364.41;4975487;28;20046;-90
2023/06/29 05:11:34;;;;;;;5.05;4.07;;;;;;;17.78;68.16;101367.88;4975124;28;20057;-92
2023/06/29 05:14:00;;;;;;;5.60;4.03;;;;;;;17.94;67.85;101362.44;4954625;28;20143;-90
2023/06/29 05:16:25;;;;;;;4.00;2.72;;;;;;;17.97;67.39;101359.63;4973281;28;20084;-88
2023/06/29 05:18:51;;;;;;;5.63;3.85;;;;;;;18.01;67.84;101352.41;5002820;28;20030;-88
2023/06/29 05:21:16;;;;;;;6.10;3.70;;;;;;;18.15;66.30;101361.91;4975278;28;20117;-91
2023/06/29 05:23:41;;;;;;;5.55;3.60;;;;;;;18.21;66.54;101361.50;4958486;28;20492;-91
2023/06/29 05:26:07;;;;;;;5.20;3.60;;;;;;;18.27;65.90;101366.31;4990251;28;20038;-92
2023/06/29 05:28:32;;;;;;;4.68;3.58;;;;;;;18.29;65.66;101353.97;4970925;28;20031;-94
2023/06/29 05:30:58;;;;;;;5.95;4.50;;;;;;;18.44;65.21;101365.97;4954088;28;20030;-90
2023/06/29 05:33:24;;;;;;;5.93;4.07;;;;;;;18.50;65.58;101368.16;4957457;28;20037;-91
2023/06/29 05:35:49;;;;;;;6.75;4.82;;;;;;;18.66;64.75;101369.72;4958381;28;20578;-93
2023/06/29 05:38:15;;;;;;;6.75;4.00;;;;;;;18.67;64.44;101368.78;4967844;28;20061;-92
2023/06/29 05:40:40;;;;;;;4.60;3.65;;;;;;;18.71;64.80;101351.91;4953771;28;20035;-88
2023/06/29 05:43:06;;;;;;;6.68;3.80;;;;;;;18.84;64.90;101360.53;4981149;28;20022;-90
2023/06/29 05:45:31;;;;;;;5.88;3.47;;;;;;;18.86;64.31;101356.88;4953979;28;20054;-90
2023/06/29 05:47:57;;;;;;;8.32;3.72;;;;;;;18.97;64.17;101368.34;4964915;28;20033;-94
2023/06/29 05:50:22;;;;;;;4.40;3.40;;;;;;;18.96;63.89;101351.78;4973133;28;20053;-87
2023/06/29 05:52:48;;;;;;;4.68;3.13;;;;;;;19.17;63.82;101357.25;4990656;28;20404;-85
2023/06/29 05:55:13;;;;;;;5.97;3.58;;;;;;;19.15;63.27;101356.53;4972776;28;20034;-87
2023/06/29 05:57:38;;;;;;;4.15;3.08;;;;;;;19.24;63.47;101349.78;4972318;28;20030;-86
2023/06/29 06:00:09;;;;;;;7.45;4.03;;;;;;;19.44;62.26;101367.50;4990503;28;20045;-92
2023/06/29 06:02:38;;;;;;;8.68;3.65;;;;;;;19.57;62.76;101365.69;4975228;28;20030;-92
2023/06/29 06:05:05;;;;;;;5.88;3.45;;;;;;;19.67;61.75;101356.16;4966935;28;20031;-92
2023/06/29 06:07:31;;;;;;;5.90;3.15;;;;;;;19.80;61.64;101370.97;4977121;28;20057;-93
2023/06/29 06:09:56;;;;;;;3.42;2.70;;;;;;;19.85;60.65;101366.19;4976720;28;20031;-92
2023/06/29 06:12:22;;;;;;;6.95;4.70;;;;;;;19.90;60.24;101353.56;4960762;28;20455;-93
2023/06/29 06:14:48;;;;;;;9.50;4.38;;;;;;;20.05;60.58;101360.25;4977823;28;20117;-92
2023/06/29 06:17:14;;;;;;;4.15;3.08;;;;;;;20.19;59.90;101357.41;4979605;28;20109;-92
2023/06/29 06:19:39;;;;;;;6.50;2.75;;;;;;;20.25;59.23;101356.09;4961390;28;20140;-92
2023/06/29 06:22:05;;;;;;;5.80;3.25;;;;;;;20.37;58.72;101367.44;4960650;28;20034;-91
2023/06/29 06:24:30;;;;;;;6.00;3.95;;;;;;;20.44;58.87;101369.50;4961563;28;20133;-92
2023/06/29 06:27:00;;;;;;;4.85;3.00;;;;;;;20.54;58.40;101372.22;4977768;28;20503;-93
2023/06/29 06:29:25;;;;;;;4.47;3.05;;;;;;;20.44;59.22;101368.66;4986155;28;20034;-87
2023/06/29 06:31:51;;;;;;;4.03;3.20;;;;;;;20.62;58.90;101361.94;4963828;28;20034;-92
2023/06/29 06:34:16;;;;;;;4.85;2.88;;;;;;;20.77;57.72;101362.53;4959146;28;20034;-94
2023/06/29 06:36:42;;;;;;;3.65;2.80;;;;;;;20.84;57.25;101364.56;4993523;28;20040;-92
2023/06/29 06:39:07;;;;;;;3.45;2.42;;;;;;;20.88;56.05;101370.38;4963087;28;20546;-89
2023/06/29 06:41:34;;;;;;;3.42;2.50;;;;;;;20.86;56.92;101367.06;4978246;28;20026;-92
2023/06/29 06:43:59;;;;;;;4.15;2.83;;;;;;;20.94;55.65;101358.53;4967345;28;20474;-92
2023/06/29 06:46:24;;;;;;;4.25;2.65;;;;;;;20.87;56.73;101366.09;4953165;28;20057;-89
2023/06/29 06:48:50;;;;;;;4.72;2.30;;;;;;;20.97;56.94;101366.19;4988856;28;20029;-93
2023/06/29 06:51:15;;;;;;;3.50;2.50;;;;;;;21.00;56.65;101350.16;4966457;28;20042;-92
2023/06/29 06:53:41;;;;;;;5.55;3.38;;;;;;;21.09;56.80;101349.41;4990692;28;20033;-90
2023/06/29 06:56:06;;;;;;;4.68;2.83;;;;;;;21.09;56.93;101359.91;4989176;28;20026;-93
2023/06/29 06:58:33;;;;;;;3.42;2.25;;;;;;;21.16;56.38;101359.31;4981282;28;20487;-90
2023/06/29 07:00:59;;;;;;;4.03;2.92;;;;;;;21.23;56.45;101356.97;4979603;28;20042;-87
2023/06/29 07:03:25;;;;;;;7.90;4.13;;;;;;;21.33;56.60;101355.28;4975289;28;20026;-88
2023/06/29 07:05:53;;;;;;;4.68;2.58;;;;;;;21.40;56.43;101356.47;4975348;28;20037;-88
2023/06/29 07:08:19;;;;;;;3.30;2.58;;;;;;;21.51;55.52;101354.72;4977784;28;20055;-91
2023/06/29 07:10:44;;;;;;;4.57;3.20;;;;;;;21.59;55.72;101361.03;4980598;28;20041;-89
2023/06/29 07:13:10;;;;;;;2.72;2.08;;;;;;;21.47;55.56;101355.00;4971247;28;20038;-90
2023/06/29 07:15:35;;;;;;;5.22;2.80;;;;;;;21.58;55.15;101361.16;4956306;28;20639;-89
2023/06/29 07:18:00;;;;;;;3.42;2.50;;;;;;;21.50;55.39;101348.63;4975078;28;20638;-92
2023/06/29 07:20:26;;;;;;;4.72;2.60;;;;;;;21.48;55.42;101364.56;4998255;28;20052;-94
2023/06/29 07:22:52;;;;;;;3.45;2.50;;;;;;;21.65;56.09;101357.06;4955671;28;20114;-92
2023/06/29 07:25:17;;;;;;;4.50;3.05;;;;;;;21.79;54.94;101354.09;4973491;28;20027;-88
2023/06/29 07:27:42;;;;;;;6.10;2.97;;;;;;;21.98;56.09;101350.72;4977021;28;20416;-92
2023/06/29 07:30:08;;;;;;;5.32;3.22;;;;;;;22.12;55.39;101357.47;4976595;28;20046;-88
2023/06/29 07:32:34;;;;;;;3.67;2.70;;;;;;;21.99;53.34;101355.84;4973377;28;20035;-92
2023/06/29 07:35:00;;;;;;;3.67;2.67;;;;;;;22.07;53.39;101357.03;4957904;28;20475;-93
2023/06/29 07:37:25;;;;;;;8.00;3.33;;;;;;;22.15;52.90;101342.25;4973016;28;20031;-93
2023/06/29 07:39:51;;;;;;;6.97;2.80;;;;;;;22.29;52.67;101344.50;4972564;28;20034;-86
2023/06/29 07:42:16;;;;;;;3.25;2.60;;;;;;;22.29;51.93;101339.22;4990888;28;20039;-88
2023/06/29 07:44:42;;;;;;;5.20;3.03;;;;;;;22.33;53.04;101345.09;4975730;28;20069;-94
2023/06/29 07:47:08;;;;;;;5.68;3.72;;;;;;;22.46;53.53;101348.31;4966002;28;20116;-92
2023/06/29 07:49:34;;;;;;;6.28;3.92;;;;;;;22.49;51.93;101332.22;4970230;28;20031;-93
2023/06/29 07:51:59;;;;;;;5.82;3.38;;;;;;;22.69;52.22;101334.91;4973106;28;20038;-92
2023/06/29 07:54:25;;;;;;;4.72;3.13;;;;;;;22.88;52.17;101343.69;4976709;28;20095;-92
2023/06/29 07:56:50;;;;;;;5.57;2.80;;;;;;;22.97;51.44;101331.50;4984357;28;20041;-92
2023/06/29 07:59:16;;;;;;;2.85;2.13;;;;;;;23.12;49.55;101327.47;4976574;28;20093;-94
2023/06/29 08:01:41;;;;;;;3.25;2.15;;;;;;;23.11;49.62;101340.81;4965367;28;20026;-94
2023/06/29 08:04:07;;;;;;;3.40;2.50;;;;;;;23.16;47.78;101335.94;4975816;28;20037;-91
2023/06/29 08:06:33;;;;;;;3.13;2.00;;;;;;;23.14;47.28;101325.53;4973004;28;20080;-87
2023/06/29 08:09:05;;;;;;;3.30;1.92;;;;;;;23.25;47.23;101327.19;4993323;28;20153;-92
2023/06/29 08:11:30;;;;;;;3.90;2.22;;;;;;;23.28;49.06;101320.78;4988719;28;20039;-86
2023/06/29 08:13:56;;;;;;;4.97;2.47;;;;;;;23.48;47.84;101317.13;4988533;28;20065;-88
2023/06/29 08:16:21;;;;;;;5.28;2.08;;;;;;;23.38;48.35;101300.47;4989923;28;20035;-86
2023/06/29 08:18:47;;;;;;;2.55;1.85;;;;;;;23.51;49.00;101316.88;4981253;28;20041;-88
2023/06/29 08:21:12;;;;;;;3.50;2.58;;;;;;;23.62;48.60;101306.19;4992802;28;20026;-86
2023/06/29 08:23:38;;;;;;;3.42;2.58;;;;;;;23.83;49.03;101328.91;4991806;28;20026;-91
2023/06/29 08:26:04;;;;;;;4.03;2.40;;;;;;;23.80;47.07;101316.00;4980864;28;20042;-88
2023/06/29 08:28:29;;;;;;;3.75;2.50;;;;;;;23.91;47.72;101318.47;4991066;28;20030;-91
2023/06/29 08:30:55;;;;;;;3.05;2.30;;;;;;;23.75;46.91;101314.59;4973792;28;20029;-86
2023/06/29 08:33:23;;;;;;;3.67;2.42;;;;;;;23.51;45.12;101301.03;4990905;28;20570;-87
2023/06/29 08:35:51;;;;;;;3.85;2.58;;;;;;;23.41;44.90;101279.09;4990219;28;20076;-85
2023/06/29 08:38:17;;;;;;;4.65;2.08;;;;;;;23.57;45.17;101305.72;4999977;28;20030;-86
2023/06/29 08:40:45;;;;;;;3.88;2.60;;;;;;;23.62;46.48;101310.63;4993040;28;20392;-87
2023/06/29 08:43:11;;;;;;;3.65;2.65;;;;;;;23.74;47.68;101312.94;4964851;28;20018;-91
2023/06/29 08:45:37;;;;;;;3.38;2.40;;;;;;;23.82;48.66;101303.47;4985040;28;20034;-89
2023/06/29 08:48:03;;;;;;;2.80;2.20;;;;;;;23.40;47.35;101283.56;4972129;28;20381;-93
2023/06/29 08:50:28;;;;;;;2.88;2.10;;;;;;;23.46;47.20;101297.97;4987354;28;20077;-92
2023/06/29 08:52:56;;;;;;;3.42;2.50;;;;;;;23.78;47.02;101310.84;4973816;28;20490;-87
2023/06/29 08:55:22;;;;;;;11.63;5.20;;;;;;;24.03;44.37;101306.72;4976642;28;20122;-90
2023/06/29 08:57:51;;;;;;;8.48;3.95;;;;;;;24.14;45.84;101295.97;4984574;28;20074;-91
2023/06/29 09:00:17;;;;;;;5.97;2.13;;;;;;;24.13;43.11;101296.94;4963880;28;20083;-88
2023/06/29 09:02:43;;;;;;;3.35;1.98;;;;;;;24.28;41.53;101300.75;4982914;28;20018;-87
2023/06/29 09:05:09;;;;;;;2.58;2.10;;;;;;;24.10;43.20;101302.53;4990855;28;20034;-90
2023/06/29 09:07:37;;;;;;;2.15;1.75;;;;;;;24.24;42.77;101287.97;4963207;28;20157;-90
2023/06/29 09:10:03;;;;;;;7.15;2.30;;;;;;;24.24;43.47;101294.09;4994311;28;20045;-88
2023/06/29 09:12:28;;;;;;;2.30;1.80;;;;;;;24.14;41.17;101295.13;4960643;28;20126;-89
2023/06/29 09:14:57;;;;;;;2.80;1.70;;;;;;;24.16;39.73;101299.28;4989211;28;20026;-89
2023/06/29 09:17:22;;;;;;;3.97;2.17;;;;;;;24.19;39.49;101299.00;4952942;28;20401;-88
2023/06/29 09:19:55;;;;;;;2.53;2.08;;;;;;;24.35;38.58;101281.69;4988638;28;20696;-88
2023/06/29 09:22:21;;;;;;;3.75;2.03;;;;;;;24.50;38.08;101278.41;4955104;28;20030;-86
2023/06/29 09:24:48;;;;;;;4.85;1.90;;;;;;;24.51;37.31;101285.34;4973618;28;20030;-87
2023/06/29 09:27:13;;;;;;;2.85;1.98;;;;;;;24.54;36.53;101286.84;4973696;28;20399;-87
2023/06/29 09:29:39;;;;;;;3.58;1.80;;;;;;;24.70;38.25;101262.38;4973873;28;20046;-87
2023/06/29 09:32:05;;;;;;;3.72;2.20;;;;;;;25.01;37.44;101286.63;4972740;28;20504;-89
2023/06/29 09:34:31;;;;;;;4.35;2.40;;;;;;;24.94;37.99;101280.28;4972614;28;20125;-88
2023/06/29 09:36:56;;;;;;;3.33;1.95;;;;;;;24.99;37.38;101272.72;4971826;28;20074;-88
2023/06/29 09:39:22;;;;;;;3.08;2.00;;;;;;;25.00;36.56;101267.28;4962677;28;20049;-92
2023/06/29 09:41:51;;;;;;;2.83;1.95;;;;;;;25.14;36.75;101269.38;4983964;28;20043;-89
2023/06/29 09:44:21;;;;;;;3.65;1.80;;;;;;;25.26;36.64;101269.97;4996529;28;20030;-91
2023/06/29 09:46:49;;;;;;;4.43;2.50;;;;;;;25.24;35.77;101261.34;4972390;28;20054;-90
2023/06/29 09:49:15;;;;;;;4.13;2.38;;;;;;;25.33;36.59;101270.19;5005646;28;20117;-88
2023/06/29 09:51:40;;;;;;;3.83;2.55;;;;;;;25.35;36.48;101266.38;4994699;28;20125;-88
2023/06/29 09:54:13;;;;;;;3.25;2.20;;;;;;;25.37;36.43;101253.84;4974776;28;20035;-90
2023/06/29 09:56:40;;;;;;;4.00;2.20;;;;;;;25.37;36.31;101261.78;4969924;28;20057;-89
2023/06/29 09:59:06;;;;;;;3.17;1.80;;;;;;;25.31;36.78;101256.28;4981409;28;20049;-87
2023/06/29 10:01:31;;;;;;;3.88;2.10;;;;;;;25.55;37.14;101259.06;4979068;28;20491;-88
2023/06/29 10:03:57;;;;;;;4.03;2.58;;;;;;;25.64;35.86;101241.38;4969516;28;20088;-89
2023/06/29 10:06:31;;;;;;;3.67;1.90;;;;;;;25.66;35.55;101244.69;4999326;28;20045;-87
2023/06/29 10:09:00;;;;;;;3.38;2.00;;;;;;;25.77;35.43;101241.00;4975181;28;20428;-89
2023/06/29 10:11:29;;;;;;;2.63;1.70;;;;;;;25.64;35.30;101257.28;4978778;28;20538;-89
2023/06/29 10:14:03;;;;;;;3.97;2.60;;;;;;;25.86;36.08;101250.63;4960596;28;20035;-88
2023/06/29 10:16:29;;;;;;;3.85;1.95;;;;;;;25.98;35.03;101242.25;4957534;28;20030;-89
2023/06/29 10:18:55;;;;;;;2.75;1.88;;;;;;;25.93;34.97;101238.41;4957886;28;20041;-91
2023/06/29 10:21:20;;;;;;;4.97;2.25;;;;;;;25.53;34.87;101226.59;4980003;28;20522;-89
2023/06/29 10:23:47;;;;;;;3.72;2.10;;;;;;;25.67;34.85;101231.31;4991175;28;20080;-90
2023/06/29 10:26:12;;;;;;;3.85;2.35;;;;;;;25.91;35.65;101237.75;4980158;28;20116;-88
2023/06/29 10:28:37;;;;;;;3.67;2.50;;;;;;;26.10;35.20;101247.25;4976033;28;20038;-90
2023/06/29 10:31:03;;;;;;;2.83;2.15;;;;;;;25.88;35.29;101246.84;4956594;28;20031;-91
2023/06/29 10:33:28;;;;;;;3.05;2.25;;;;;;;26.01;35.98;101255.16;5005544;28;20041;-91
2023/06/29 10:35:56;;;;;;;3.38;2.08;;;;;;;26.14;35.05;101244.09;4977928;28;20038;-94
2023/06/29 10:38:24;;;;;;;3.20;2.30;;;;;;;26.25;36.02;101246.47;4960547;28;20478;-91
2023/06/29 10:40:49;;;;;;;3.75;2.22;;;;;;;26.37;35.56;101228.47;4979253;28;20030;-94
2023/06/29 10:43:15;;;;;;;3.25;2.30;;;;;;;26.22;34.74;101230.03;4976361;28;20033;-87
2023/06/29 10:45:40;;;;;;;3.42;2.45;;;;;;;26.27;34.65;101238.34;4957680;28;20038;-91
2023/06/29 10:48:13;;;;;;;3.25;2.28;;;;;;;26.38;35.62;101238.06;4966672;28;20470;-89
2023/06/29 10:50:45;;;;;;;6.45;2.30;;;;;;;26.47;34.98;101242.41;4976956;28;20061;-88
2023/06/29 10:53:13;;;;;;;3.00;2.05;;;;;;;26.54;34.51;101235.41;4994540;28;20022;-88
2023/06/29 10:55:43;;;;;;;3.47;2.22;;;;;;;26.40;34.87;101244.03;4986752;28;20034;-90
2023/06/29 10:58:17;;;;;;;5.65;2.90;;;;;;;26.10;34.22;101244.59;4977304;28;20034;-87
2023/06/29 11:00:43;;;;;;;2.67;1.98;;;;;;;25.99;34.47;101230.66;4997677;28;20136;-88
2023/06/29 11:03:09;;;;;;;3.88;2.67;;;;;;;26.13;35.45;101241.63;5009436;28;20018;-88
2023/06/29 11:05:35;;;;;;;3.00;2.45;;;;;;;26.14;35.60;101241.44;4996149;28;20030;-87
2023/06/29 11:08:00;;;;;;;2.88;2.25;;;;;;;26.37;35.55;101243.50;5006455;28;20053;-89
2023/06/29 11:10:26;;;;;;;3.33;2.28;;;;;;;26.39;36.22;101237.06;4979558;28;20033;-88
2023/06/29 11:12:54;;;;;;;3.75;2.72;;;;;;;26.48;35.64;101230.78;4978169;28;20040;-89
2023/06/29 11:15:20;;;;;;;3.00;2.17;;;;;;;26.54;33.76;101240.72;4992764;28;20027;-87
2023/06/29 11:17:46;;;;;;;5.22;2.55;;;;;;;26.58;34.61;101227.97;4976673;28;20058;-89
2023/06/29 11:20:13;;;;;;;8.07;4.93;;;;;;;26.62;35.62;101236.44;4975389;28;20033;-87